createdAt,value
2023-01-02T00:00:20.908Z,0.97
2023-01-02T00:03:45.406Z,1.00
2023-01-02T00:07:10.996Z,0.97
2023-01-02T00:10:34.866Z,1.10
2023-01-02T00:13:58.375Z,1.10
2023-01-02T00:17:21.841Z,1.20
2023-01-02T00:20:45.716Z,1.33
2023-01-02T00:24:11.177Z,1.80
2023-01-02T00:27:34.661Z,1.10
2023-01-02T00:30:58.573Z,1.37
2023-01-02T00:34:22.379Z,1.20
2023-01-02T00:37:46.219Z,1.20
2023-01-02T00:41:11.548Z,1.50
2023-01-02T00:44:34.947Z,1.40
2023-01-02T00:47:58.366Z,1.60
2023-01-02T00:51:22.112Z,1.40
2023-01-02T00:54:45.879Z,2.03
2023-01-02T00:58:11.127Z,1.67
2023-01-02T01:01:35.032Z,1.53
2023-01-02T01:04:59.457Z,1.60
2023-01-02T01:08:23.301Z,1.43
2023-01-02T01:11:46.684Z,1.40
2023-01-02T01:15:12.475Z,1.60
2023-01-02T01:18:36.519Z,2.03
2023-01-02T01:21:59.951Z,1.87
2023-01-02T01:25:23.369Z,1.80
2023-01-02T01:28:47.843Z,2.20
2023-01-02T01:32:12.848Z,1.90
2023-01-02T01:35:36.352Z,1.83
2023-01-02T01:38:59.687Z,1.50
2023-01-02T01:42:23.112Z,1.70
2023-01-02T01:45:46.989Z,1.80
2023-01-02T01:49:17.256Z,1.60
2023-01-02T01:52:47.026Z,1.80
2023-01-02T01:56:14.139Z,1.93
2023-01-02T01:59:37.880Z,1.60
2023-01-02T02:03:06.160Z,1.70
2023-01-02T02:06:31.372Z,1.43
2023-01-02T02:10:03.040Z,1.30
2023-01-02T02:13:26.947Z,1.43
2023-01-02T02:16:55.421Z,1.40
2023-01-02T02:20:34.770Z,1.20
2023-01-02T02:24:38.126Z,1.77
2023-01-02T02:28:29.859Z,1.20
2023-01-02T02:32:09.101Z,1.40
2023-01-02T02:35:49.376Z,1.47
2023-01-02T02:39:26.325Z,1.50
2023-01-02T02:43:05.163Z,1.70
2023-01-02T02:46:37.073Z,1.47
2023-01-02T02:50:13.200Z,1.37
2023-01-02T02:53:43.623Z,1.60
2023-01-02T02:57:09.484Z,1.47
2023-01-02T03:00:33.194Z,1.20
2023-01-02T03:03:56.880Z,1.10
2023-01-02T03:07:27.799Z,0.90
2023-01-02T03:10:58.866Z,0.90
2023-01-02T03:14:33.819Z,1.00
2023-01-02T03:18:14.004Z,1.07
2023-01-02T03:21:44.022Z,0.80
2023-01-02T03:25:12.158Z,0.93
2023-01-02T03:28:38.712Z,0.90
2023-01-02T03:32:06.260Z,0.87
2023-01-02T03:35:36.567Z,0.80
2023-01-02T03:39:08.118Z,0.80
2023-01-02T03:42:38.740Z,0.80
2023-01-02T03:46:11.686Z,0.90
2023-01-02T03:49:42.444Z,0.80
2023-01-02T03:53:05.846Z,0.70
2023-01-02T03:56:43.967Z,0.90
2023-01-02T04:00:14.178Z,0.87
2023-01-02T04:03:46.762Z,1.10
2023-01-02T04:07:19.406Z,0.87
2023-01-02T04:10:48.972Z,1.00
2023-01-02T04:14:26.172Z,1.00
2023-01-02T04:17:57.455Z,0.80
2023-01-02T04:21:29.670Z,0.80
2023-01-02T04:25:02.793Z,0.70
2023-01-02T04:28:29.975Z,0.93
2023-01-02T04:32:03.919Z,0.70
2023-01-02T04:35:29.868Z,0.80
2023-01-02T04:38:53.640Z,0.87
2023-01-02T04:42:17.092Z,1.60
2023-01-02T04:45:40.591Z,0.80
2023-01-02T04:49:04.271Z,1.07
2023-01-02T04:52:35.016Z,1.00
2023-01-02T04:56:00.688Z,1.33
2023-01-02T04:59:24.171Z,1.23
2023-01-02T05:02:47.685Z,1.30
2023-01-02T05:06:12.146Z,1.10
2023-01-02T05:09:36.999Z,1.27
2023-01-02T05:13:00.431Z,1.20
2023-01-02T05:16:24.222Z,1.40
2023-01-02T05:19:48.064Z,1.00
2023-01-02T05:23:30.281Z,1.90
2023-01-02T05:26:55.674Z,2.50
2023-01-02T05:30:19.268Z,2.00
2023-01-02T05:33:43.052Z,1.80
2023-01-02T05:37:06.590Z,2.17
2023-01-02T05:40:30.499Z,1.50
2023-01-02T05:43:56.512Z,1.43
2023-01-02T05:47:20.452Z,1.67
2023-01-02T05:50:43.907Z,1.50
2023-01-02T05:54:07.818Z,1.30
2023-01-02T05:57:31.739Z,1.50
2023-01-02T06:00:57.362Z,1.30
2023-01-02T06:04:21.163Z,1.40
2023-01-02T06:07:44.975Z,1.20
2023-01-02T06:11:09.308Z,1.50
2023-01-02T06:14:33.421Z,2.00
2023-01-02T06:17:58.180Z,1.80
2023-01-02T06:21:23.715Z,1.63
2023-01-02T06:24:47.536Z,1.80
2023-01-02T06:28:11.474Z,1.70
2023-01-02T06:31:37.918Z,1.63
2023-01-02T06:35:04.674Z,2.47
2023-01-02T06:38:28.578Z,1.90
2023-01-02T06:41:53.795Z,1.77
2023-01-02T06:45:17.704Z,1.90
2023-01-02T06:48:41.722Z,1.90
2023-01-02T06:52:06.924Z,1.80
2023-01-02T06:55:30.742Z,1.40
2023-01-02T06:58:54.493Z,1.50
2023-01-02T07:02:18.846Z,1.73
2023-01-02T07:05:42.792Z,1.37
2023-01-02T07:09:07.557Z,1.50
2023-01-02T07:12:31.355Z,1.43
2023-01-02T07:15:54.768Z,1.40
2023-01-02T07:19:18.635Z,1.30
2023-01-02T07:22:42.432Z,1.47
2023-01-02T07:26:08.627Z,1.20
2023-01-02T07:29:32.414Z,1.43
2023-01-02T07:32:56.187Z,1.90
2023-01-02T07:36:22.500Z,1.50
2023-01-02T07:39:45.923Z,1.90
2023-01-02T07:43:10.992Z,1.53
2023-01-02T07:46:34.714Z,1.37
2023-01-02T07:49:58.575Z,1.40
2023-01-02T07:53:21.915Z,1.40
2023-01-02T07:56:45.664Z,1.67
2023-01-02T08:00:13.010Z,1.40
2023-01-02T08:03:36.542Z,1.40
2023-01-02T08:07:00.273Z,1.50
2023-01-02T08:10:24.062Z,1.20
2023-01-02T08:13:47.981Z,2.10
2023-01-02T08:17:12.844Z,1.70
2023-01-02T08:20:36.267Z,2.20
2023-01-02T08:24:00.157Z,1.83
2023-01-02T08:27:26.773Z,1.80
2023-01-02T08:30:50.514Z,1.80
2023-01-02T08:34:16.004Z,1.90
2023-01-02T08:37:39.914Z,1.37
2023-01-02T08:41:03.784Z,1.90
2023-01-02T08:44:27.545Z,1.47
2023-01-02T08:47:50.898Z,1.70
2023-01-02T08:51:15.637Z,1.80
2023-01-02T08:54:40.034Z,1.73
2023-01-02T08:58:04.374Z,1.93
2023-01-02T09:01:29.793Z,2.23
2023-01-02T09:04:53.784Z,1.63
2023-01-02T09:08:19.104Z,2.37
2023-01-02T09:11:47.018Z,1.90
2023-01-02T09:15:11.605Z,1.90
2023-01-02T09:18:35.530Z,2.23
2023-01-02T09:22:01.312Z,1.73
2023-01-02T09:25:26.488Z,2.07
2023-01-02T09:28:50.309Z,1.90
2023-01-02T09:32:14.182Z,2.00
2023-01-02T09:35:38.476Z,1.97
2023-01-02T09:39:03.808Z,1.97
2023-01-02T09:42:28.768Z,1.90
2023-01-02T09:45:53.285Z,1.73
2023-01-02T09:49:22.407Z,1.50
2023-01-02T09:52:51.840Z,1.80
2023-01-02T09:56:23.020Z,1.50
2023-01-02T09:59:57.910Z,1.30
2023-01-02T10:03:34.841Z,1.00
2023-01-02T10:07:09.002Z,0.80
2023-01-02T10:10:39.226Z,1.03
2023-01-02T10:14:18.767Z,1.30
2023-01-02T10:17:51.162Z,1.20
2023-01-02T10:21:19.652Z,0.97
2023-01-02T10:24:48.850Z,1.00
2023-01-02T10:28:29.214Z,1.00
2023-01-02T10:31:58.817Z,0.90
2023-01-02T10:35:36.133Z,0.90
2023-01-02T10:39:02.025Z,1.10
2023-01-02T10:42:26.341Z,1.23
2023-01-02T10:45:50.115Z,1.00
2023-01-02T10:49:15.019Z,1.00
2023-01-02T10:52:49.759Z,0.97
2023-01-02T10:56:20.492Z,1.10
2023-01-02T10:59:45.596Z,1.63
2023-01-02T11:03:16.423Z,1.40
2023-01-02T11:06:51.302Z,1.40
2023-01-02T11:10:28.617Z,1.70
2023-01-02T11:13:56.083Z,1.40
2023-01-02T11:17:23.696Z,1.30
2023-01-02T11:20:52.138Z,1.20
2023-01-02T11:24:19.999Z,1.00
2023-01-02T11:27:46.257Z,1.40
2023-01-02T11:31:12.021Z,1.10
2023-01-02T11:34:37.734Z,1.10
2023-01-02T11:38:03.437Z,1.10
2023-01-02T11:41:50.060Z,1.00
2023-01-02T11:45:17.955Z,1.13
2023-01-02T11:48:41.987Z,1.20
2023-01-02T11:52:07.681Z,1.10
2023-01-02T11:55:40.880Z,1.10
2023-01-02T11:59:12.753Z,1.40
2023-01-02T12:02:42.673Z,1.10
2023-01-02T12:06:16.450Z,0.97
2023-01-02T12:09:51.379Z,1.30
2023-01-02T12:13:36.947Z,0.90
2023-01-02T12:17:09.079Z,1.10
2023-01-02T12:20:48.449Z,1.00
2023-01-02T12:24:41.445Z,1.10
2023-01-02T12:28:28.349Z,0.80
2023-01-02T12:32:19.000Z,1.20
2023-01-02T12:36:18.597Z,1.20
2023-01-02T12:40:09.308Z,1.10
2023-01-02T12:44:08.638Z,0.90
2023-01-02T12:47:58.029Z,1.00
2023-01-02T12:51:31.903Z,1.07
2023-01-02T12:55:16.739Z,0.90
2023-01-02T12:59:03.202Z,1.20
2023-01-02T13:03:03.534Z,1.20
2023-01-02T13:06:44.722Z,1.50
2023-01-02T13:10:18.562Z,1.20
2023-01-02T13:13:42.197Z,1.33
2023-01-02T13:17:41.802Z,1.10
2023-01-02T13:21:13.432Z,1.07
2023-01-02T13:24:39.342Z,1.07
2023-01-02T13:28:05.946Z,1.37
2023-01-02T13:31:46.599Z,1.40
2023-01-02T13:35:13.094Z,1.20
2023-01-02T13:38:37.711Z,1.20
2023-01-02T13:42:22.827Z,1.10
2023-01-02T13:45:52.328Z,1.27
2023-01-02T13:49:22.551Z,1.30
2023-01-02T13:53:05.716Z,1.20
2023-01-02T13:56:30.592Z,1.73
2023-01-02T14:00:01.254Z,1.60
2023-01-02T14:03:39.128Z,1.83
2023-01-02T14:07:48.649Z,1.40
2023-01-02T14:11:22.493Z,1.60
2023-01-02T14:14:50.993Z,1.83
2023-01-02T14:18:30.741Z,1.20
2023-01-02T14:22:05.565Z,1.50
2023-01-02T14:25:30.629Z,1.40
2023-01-02T14:28:54.500Z,1.77
2023-01-02T14:32:24.575Z,1.40
2023-01-02T14:35:55.055Z,1.40
2023-01-02T14:39:26.061Z,1.50
2023-01-02T14:43:14.194Z,1.53
2023-01-02T14:46:37.855Z,1.30
2023-01-02T14:50:05.277Z,1.57
2023-01-02T14:53:34.673Z,1.60
2023-01-02T14:57:07.326Z,1.53
2023-01-02T15:00:38.158Z,1.30
2023-01-02T15:04:15.099Z,1.30
2023-01-02T15:07:44.295Z,1.80
2023-01-02T15:11:38.526Z,1.23
2023-01-02T15:15:02.295Z,1.30
2023-01-02T15:18:30.475Z,1.57
2023-01-02T15:21:56.451Z,1.60
2023-01-02T15:25:35.575Z,1.93
2023-01-02T15:29:02.842Z,1.80
2023-01-02T15:32:29.359Z,1.77
2023-01-02T15:36:01.320Z,2.30
2023-01-02T15:39:34.593Z,1.53
2023-01-02T15:43:20.676Z,1.70
2023-01-02T15:46:46.591Z,1.63
2023-01-02T15:50:19.230Z,1.20
2023-01-02T15:53:44.605Z,1.53
2023-01-02T15:57:16.074Z,1.50
2023-01-02T16:00:43.109Z,1.80
2023-01-02T16:04:27.018Z,1.60
2023-01-02T16:07:54.044Z,1.50
2023-01-02T16:11:19.404Z,1.70
2023-01-02T16:14:50.637Z,1.80
2023-01-02T16:18:14.698Z,2.23
2023-01-02T16:21:39.579Z,1.67
2023-01-02T16:25:14.808Z,1.43
2023-01-02T16:28:43.706Z,2.07
2023-01-02T16:32:27.762Z,1.77
2023-01-02T16:36:01.095Z,1.30
2023-01-02T16:39:44.901Z,1.67
2023-01-02T16:43:08.671Z,1.57
2023-01-02T16:46:32.731Z,1.63
2023-01-02T16:49:57.211Z,1.60
2023-01-02T16:53:25.590Z,1.60
2023-01-02T16:56:51.490Z,1.70
2023-01-02T17:00:17.977Z,1.20
2023-01-02T17:03:41.740Z,1.70
2023-01-02T17:07:05.537Z,1.30
2023-01-02T17:10:29.624Z,1.40
2023-01-02T17:13:54.431Z,1.33
2023-01-02T17:17:17.809Z,1.50
2023-01-02T17:20:41.191Z,1.33
2023-01-02T17:24:04.836Z,1.33
2023-01-02T17:27:28.483Z,1.40
2023-01-02T17:30:53.743Z,1.40
2023-01-02T17:34:17.225Z,1.50
2023-01-02T17:37:40.882Z,1.50
2023-01-02T17:41:04.508Z,1.50
2023-01-02T17:44:29.462Z,1.80
2023-01-02T17:48:02.637Z,1.57
2023-01-02T17:51:29.501Z,1.50
2023-01-02T17:54:56.696Z,1.60
2023-01-02T17:58:21.172Z,1.63
2023-01-02T18:01:44.740Z,2.00
2023-01-02T18:05:10.672Z,1.43
2023-01-02T18:08:34.233Z,1.53
2023-01-02T18:11:58.049Z,1.50
2023-01-02T18:15:24.176Z,1.73
2023-01-02T18:18:49.333Z,1.67
2023-01-02T18:22:17.946Z,1.63
2023-01-02T18:25:48.157Z,1.90
2023-01-02T18:29:22.195Z,1.53
2023-01-02T18:32:46.609Z,1.60
2023-01-02T18:36:25.199Z,1.83
2023-01-02T18:39:51.273Z,1.57
2023-01-02T18:43:27.798Z,1.70
2023-01-02T18:47:02.267Z,1.67
2023-01-02T18:50:34.694Z,1.30
2023-01-02T18:53:58.958Z,1.20
2023-01-02T18:57:24.772Z,1.10
2023-01-02T19:00:48.210Z,1.00
2023-01-02T19:04:28.000Z,1.00
2023-01-02T19:07:52.707Z,1.00
2023-01-02T19:11:37.733Z,0.80
2023-01-02T19:15:34.180Z,0.80
2023-01-02T19:18:57.584Z,0.70
2023-01-02T19:22:24.555Z,0.80
2023-01-02T19:25:50.119Z,0.80
2023-01-02T19:29:20.626Z,0.70
2023-01-02T19:32:45.852Z,0.70
2023-01-02T19:36:18.529Z,0.70
2023-01-02T19:39:50.849Z,0.60
2023-01-02T19:43:14.285Z,0.70
2023-01-02T19:46:38.292Z,0.70
2023-01-02T19:50:05.268Z,0.87
2023-01-02T19:53:28.970Z,0.90
2023-01-02T19:56:52.512Z,1.80
2023-01-02T20:00:19.262Z,0.70
2023-01-02T20:03:42.842Z,0.70
2023-01-02T20:07:07.991Z,0.77
2023-01-02T20:10:31.501Z,0.80
2023-01-02T20:13:55.278Z,0.80
2023-01-02T20:17:19.418Z,0.80
2023-01-02T20:20:43.619Z,0.90
2023-01-02T20:24:09.310Z,0.90
2023-01-02T20:27:33.854Z,0.70
2023-01-02T20:30:57.410Z,0.70
2023-01-02T20:34:21.355Z,0.70
2023-01-02T20:37:45.256Z,0.73
2023-01-02T20:41:10.424Z,0.70
2023-01-02T20:44:34.703Z,0.70
2023-01-02T20:47:58.628Z,0.70
2023-01-02T20:51:22.135Z,0.73
2023-01-02T20:54:46.000Z,0.80
2023-01-02T20:58:10.826Z,0.97
2023-01-02T21:01:35.503Z,0.70
2023-01-02T21:05:00.784Z,0.70
2023-01-02T21:08:25.108Z,0.80
2023-01-02T21:11:48.582Z,0.70
2023-01-02T21:15:34.060Z,0.80
2023-01-02T21:18:59.702Z,0.90
2023-01-02T21:22:23.503Z,0.90
2023-01-02T21:25:48.000Z,0.77
2023-01-02T21:29:12.242Z,0.83
2023-01-02T21:32:37.491Z,0.80
2023-01-02T21:36:03.282Z,1.00
2023-01-02T21:39:27.128Z,0.67
2023-01-02T21:42:51.339Z,0.80
2023-01-02T21:46:15.791Z,0.90
2023-01-02T21:49:40.859Z,0.90
2023-01-02T21:53:05.252Z,0.90
2023-01-02T21:56:29.027Z,0.80
2023-01-02T21:59:55.372Z,0.80
2023-01-02T22:03:19.352Z,1.13
2023-01-02T22:07:04.681Z,0.90
2023-01-02T22:10:28.377Z,0.80
2023-01-02T22:13:52.187Z,0.90
2023-01-02T22:17:16.036Z,0.90
2023-01-02T22:20:39.945Z,0.70
2023-01-02T22:24:05.181Z,1.00
2023-01-02T22:27:29.874Z,0.90
2023-01-02T22:30:53.820Z,0.87
2023-01-02T22:34:20.839Z,0.80
2023-01-02T22:37:44.385Z,0.97
2023-01-02T22:41:10.010Z,0.90
2023-01-02T22:44:33.802Z,0.80
2023-01-02T22:48:02.762Z,1.00
2023-01-02T22:51:57.731Z,0.80
2023-01-02T22:55:18.051Z,0.80
2023-01-02T22:58:43.912Z,0.70
2023-01-02T23:02:14.821Z,0.70
2023-01-02T23:05:38.300Z,0.80
2023-01-02T23:09:01.924Z,0.70
2023-01-02T23:12:25.744Z,0.90
2023-01-02T23:16:08.036Z,0.70
2023-01-02T23:19:31.693Z,0.83
2023-01-02T23:22:55.624Z,0.70
2023-01-02T23:26:20.868Z,0.60
2023-01-02T23:29:44.532Z,0.70
2023-01-02T23:33:09.308Z,0.80
2023-01-02T23:36:32.933Z,0.70
2023-01-02T23:39:56.620Z,0.70
2023-01-02T23:43:20.079Z,0.70
2023-01-02T23:46:45.105Z,0.70
2023-01-02T23:50:10.999Z,0.70
2023-01-02T23:53:34.420Z,0.70
2023-01-02T23:56:57.860Z,0.80
